createdAt,value
2023-04-02T00:01:02.261Z,95227.28
2023-04-02T00:04:00.148Z,95190.81
2023-04-02T00:06:33.313Z,95227.34
2023-04-02T00:09:16.463Z,95223.69
2023-04-02T00:11:54.924Z,95229.63
2023-04-02T00:14:38.075Z,95235.31
2023-04-02T00:17:09.770Z,95232.72
2023-04-02T00:19:53.944Z,95243.69
2023-04-02T00:22:34.352Z,95232.22
2023-04-02T00:25:08.429Z,95235.88
2023-04-02T00:27:36.498Z,95243.44
2023-04-02T00:30:06.926Z,95236.38
2023-04-02T00:32:35.569Z,95243.63
2023-04-02T00:35:03.671Z,95249.38
2023-04-02T00:37:39.227Z,95243.44
2023-04-02T00:40:15.533Z,95233.28
2023-04-02T00:42:43.568Z,95246.38
2023-04-02T00:45:21.905Z,95237.69
2023-04-02T00:47:48.743Z,95235.88
2023-04-02T00:50:15.787Z,95243.69
2023-04-02T00:52:50.980Z,95240.03
2023-04-02T00:55:27.612Z,95245.53
2023-04-02T00:58:01.822Z,95237.75
2023-04-02T01:00:37.991Z,95246.28
2023-04-02T01:03:39.155Z,95246.91
2023-04-02T01:06:11.605Z,95246.81
2023-04-02T01:08:59.559Z,95247.56
2023-04-02T01:11:34.748Z,95249.47
2023-04-02T01:14:37.450Z,95249.56
2023-04-02T01:17:18.689Z,95245.84
2023-04-02T01:20:07.837Z,95248.19
2023-04-02T01:22:37.109Z,95253.97
2023-04-02T01:25:06.628Z,95256.91
2023-04-02T01:27:48.348Z,95252.78
2023-04-02T01:30:21.346Z,95257.00
2023-04-02T01:32:55.236Z,95259.28
2023-04-02T01:35:27.792Z,95245.34
2023-04-02T01:38:07.603Z,95258.28
2023-04-02T01:41:23.770Z,95260.31
2023-04-02T01:43:58.526Z,95259.22
2023-04-02T01:46:35.779Z,95266.28
2023-04-02T01:49:25.153Z,95265.56
2023-04-02T01:51:58.914Z,95265.00
2023-04-02T01:54:34.988Z,95264.13
2023-04-02T01:57:05.612Z,95268.66
2023-04-02T01:59:33.448Z,95272.16
2023-04-02T02:02:05.737Z,95275.06
2023-04-02T02:04:41.675Z,95265.50
2023-04-02T02:07:18.493Z,95279.38
2023-04-02T02:09:49.844Z,95275.22
2023-04-02T02:12:21.583Z,95281.88
2023-04-02T02:14:53.751Z,95287.66
2023-04-02T02:17:28.585Z,95285.41
2023-04-02T02:19:58.968Z,95294.56
2023-04-02T02:22:31.329Z,95292.63
2023-04-02T02:25:06.951Z,95302.78
2023-04-02T02:27:39.576Z,95299.13
2023-04-02T02:30:32.620Z,95300.50
2023-04-02T02:33:07.155Z,95301.97
2023-04-02T02:35:45.809Z,95304.09
2023-04-02T02:38:15.834Z,95315.63
2023-04-02T02:40:50.621Z,95305.56
2023-04-02T02:43:18.178Z,95316.28
2023-04-02T02:45:48.946Z,95312.03
2023-04-02T02:48:21.271Z,95321.06
2023-04-02T02:50:49.379Z,95321.31
2023-04-02T02:53:20.662Z,95327.66
2023-04-02T02:55:54.960Z,95330.22
2023-04-02T02:58:28.726Z,95328.13
2023-04-02T03:01:03.946Z,95321.06
2023-04-02T03:03:35.491Z,95327.66
2023-04-02T03:06:09.294Z,95327.66
2023-04-02T03:08:52.379Z,95330.66
2023-04-02T03:11:23.367Z,95323.41
2023-04-02T03:14:03.732Z,95331.69
2023-04-02T03:16:47.415Z,95328.13
2023-04-02T03:19:27.354Z,95321.88
2023-04-02T03:22:03.971Z,95332.78
2023-04-02T03:24:38.032Z,95340.47
2023-04-02T03:27:14.027Z,95335.53
2023-04-02T03:29:50.837Z,95341.94
2023-04-02T03:32:37.381Z,95343.06
2023-04-02T03:35:19.850Z,95335.75
2023-04-02T03:38:00.918Z,95348.22
2023-04-02T03:40:55.950Z,95344.78
2023-04-02T03:43:31.585Z,95353.91
2023-04-02T03:46:14.280Z,95343.91
2023-04-02T03:48:45.848Z,95359.50
2023-04-02T03:51:24.256Z,95356.47
2023-04-02T03:53:57.379Z,95372.06
2023-04-02T03:56:40.005Z,95360.69
2023-04-02T03:59:36.106Z,95365.72
2023-04-02T04:02:26.974Z,95368.75
2023-04-02T04:04:59.295Z,95379.56
2023-04-02T04:07:47.876Z,95370.88
2023-04-02T04:10:22.875Z,95378.47
2023-04-02T04:13:01.617Z,95380.34
2023-04-02T04:15:53.640Z,95381.06
2023-04-02T04:18:43.298Z,95378.03
2023-04-02T04:21:38.013Z,95386.22
2023-04-02T04:24:24.563Z,95386.75
2023-04-02T04:27:23.985Z,95386.66
2023-04-02T04:30:06.620Z,95387.31
2023-04-02T04:32:50.339Z,95384.38
2023-04-02T04:35:27.462Z,95398.69
2023-04-02T04:38:00.536Z,95403.19
2023-04-02T04:40:50.543Z,95403.81
2023-04-02T04:43:34.509Z,95413.63
2023-04-02T04:46:11.762Z,95423.44
2023-04-02T04:48:57.985Z,95423.16
2023-04-02T04:51:39.847Z,95431.78
2023-04-02T04:54:12.945Z,95426.38
2023-04-02T04:56:46.912Z,95429.47
2023-04-02T04:59:35.056Z,95432.31
2023-04-02T05:02:10.385Z,95435.16
2023-04-02T05:04:43.508Z,95443.69
2023-04-02T05:07:21.560Z,95442.22
2023-04-02T05:10:06.392Z,95444.88
2023-04-02T05:13:01.903Z,95450.66
2023-04-02T05:15:36.292Z,95453.06
2023-04-02T05:18:27.035Z,95450.75
2023-04-02T05:21:29.188Z,95450.13
2023-04-02T05:24:22.409Z,95456.06
2023-04-02T05:26:53.705Z,95460.19
2023-04-02T05:29:40.993Z,95473.97
2023-04-02T05:32:26.100Z,95460.47
2023-04-02T05:35:00.140Z,95471.66
2023-04-02T05:37:29.979Z,95474.03
2023-04-02T05:42:52.964Z,95473.28
2023-04-02T05:45:27.232Z,95483.19
2023-04-02T05:48:02.244Z,95489.09
2023-04-02T05:50:43.236Z,95483.41
2023-04-02T05:53:25.893Z,95487.50
2023-04-02T05:55:59.974Z,95491.28
2023-04-02T05:58:37.717Z,95498.63
2023-04-02T06:01:23.766Z,95490.19
2023-04-02T06:04:01.813Z,95498.25
2023-04-02T06:06:41.895Z,95496.72
2023-04-02T06:09:37.975Z,95498.72
2023-04-02T06:12:17.756Z,95511.91
2023-04-02T06:14:48.138Z,95505.50
2023-04-02T06:17:23.485Z,95509.53
2023-04-02T06:19:58.293Z,95515.84
2023-04-02T06:22:32.707Z,95519.53
2023-04-02T06:25:12.185Z,95515.03
2023-04-02T06:27:48.864Z,95524.75
2023-04-02T06:30:28.197Z,95524.75
2023-04-02T06:32:58.459Z,95525.47
2023-04-02T06:35:28.831Z,95535.66
2023-04-02T06:38:06.042Z,95533.75
2023-04-02T06:41:08.106Z,95540.06
2023-04-02T06:44:05.855Z,95546.59
2023-04-02T06:46:55.280Z,95552.56
2023-04-02T06:49:41.781Z,95555.06
2023-04-02T06:52:27.319Z,95565.16
2023-04-02T06:54:54.326Z,95569.56
2023-04-02T06:57:23.905Z,95556.06
2023-04-02T06:59:56.919Z,95568.28
2023-04-02T07:02:41.932Z,95569.66
2023-04-02T07:05:16.374Z,95581.22
2023-04-02T07:07:52.009Z,95575.72
2023-04-02T07:10:28.549Z,95579.38
2023-04-02T07:13:02.811Z,95584.44
2023-04-02T07:15:35.112Z,95583.19
2023-04-02T07:18:04.876Z,95580.44
2023-04-02T07:20:41.844Z,95591.06
2023-04-02T07:23:12.185Z,95587.78
2023-04-02T07:25:41.216Z,95585.78
2023-04-02T07:28:10.148Z,95583.81
2023-04-02T07:30:42.685Z,95599.63
2023-04-02T07:33:23.678Z,95593.28
2023-04-02T07:35:54.271Z,95595.97
2023-04-02T07:38:26.119Z,95580.34
2023-04-02T07:40:56.063Z,95592.63
2023-04-02T07:43:25.670Z,95599.34
2023-04-02T07:45:57.945Z,95598.88
2023-04-02T07:48:27.686Z,95606.78
2023-04-02T07:51:00.598Z,95615.31
2023-04-02T07:53:34.181Z,95619.91
2023-04-02T07:56:03.324Z,95617.53
2023-04-02T07:58:35.752Z,95624.59
2023-04-02T08:01:07.370Z,95621.31
2023-04-02T08:03:34.193Z,95611.38
2023-04-02T08:06:08.027Z,95621.94
2023-04-02T08:08:42.177Z,95625.13
2023-04-02T08:11:11.750Z,95629.66
2023-04-02T08:13:41.623Z,95625.03
2023-04-02T08:16:13.477Z,95635.81
2023-04-02T08:18:42.761Z,95636.16
2023-04-02T08:21:16.302Z,95636.06
2023-04-02T08:23:48.225Z,95643.50
2023-04-02T08:26:25.256Z,95648.66
2023-04-02T08:28:52.079Z,95644.59
2023-04-02T08:31:19.291Z,95659.13
2023-04-02T08:33:48.324Z,95652.13
2023-04-02T08:36:19.395Z,95663.97
2023-04-02T08:38:51.398Z,95659.66
2023-04-02T08:41:28.550Z,95665.00
2023-04-02T08:44:16.299Z,95665.88
2023-04-02T08:46:52.650Z,95663.97
2023-04-02T08:49:31.792Z,95661.19
2023-04-02T08:52:08.226Z,95663.00
2023-04-02T08:54:43.827Z,95668.25
2023-04-02T08:57:12.825Z,95667.84
2023-04-02T08:59:48.091Z,95665.38
2023-04-02T09:02:32.500Z,95674.81
2023-04-02T09:05:07.016Z,95673.50
2023-04-02T09:07:37.096Z,95674.81
2023-04-02T09:10:07.499Z,95681.03
2023-04-02T09:12:35.158Z,95668.47
2023-04-02T09:15:24.846Z,95679.41
2023-04-02T09:18:01.210Z,95685.41
2023-04-02T09:20:32.897Z,95689.25
2023-04-02T09:23:02.118Z,95688.75
2023-04-02T09:25:32.465Z,95690.47
2023-04-02T09:28:07.714Z,95694.31
2023-04-02T09:30:46.250Z,95695.78
2023-04-02T09:33:17.819Z,95701.66
2023-04-02T09:35:50.740Z,95705.25
2023-04-02T09:38:24.714Z,95705.16
2023-04-02T09:41:21.360Z,95715.28
2023-04-02T09:43:50.632Z,95719.69
2023-04-02T09:46:26.263Z,95711.91
2023-04-02T09:48:58.520Z,95715.59
2023-04-02T09:51:27.496Z,95708.59
2023-04-02T09:54:04.715Z,95713.81
2023-04-02T09:56:36.075Z,95711.19
2023-04-02T09:59:16.377Z,95710.22
2023-04-02T10:01:55.588Z,95716.41
2023-04-02T10:04:44.382Z,95721.63
2023-04-02T10:07:44.960Z,95711.84
2023-04-02T10:10:30.854Z,95714.78
2023-04-02T10:13:10.894Z,95721.28
2023-04-02T10:15:44.275Z,95722.19
2023-04-02T10:18:21.733Z,95715.56
2023-04-02T10:20:54.378Z,95729.28
2023-04-02T10:23:31.147Z,95727.34
2023-04-02T10:26:12.408Z,95725.19
2023-04-02T10:28:59.589Z,95728.22
2023-04-02T10:31:46.782Z,95728.22
2023-04-02T10:34:27.456Z,95734.06
2023-04-02T10:37:09.421Z,95732.03
2023-04-02T10:39:45.655Z,95733.50
2023-04-02T10:42:26.072Z,95731.38
2023-04-02T10:45:25.347Z,95732.13
2023-04-02T10:48:10.015Z,95730.22
2023-04-02T10:50:52.724Z,95731.78
2023-04-02T10:53:23.466Z,95734.13
2023-04-02T10:56:01.642Z,95739.34
2023-04-02T10:58:31.986Z,95742.78
2023-04-02T11:01:28.828Z,95762.38
2023-04-02T11:04:11.989Z,95748.78
2023-04-02T11:06:44.203Z,95761.53
2023-04-02T11:09:23.523Z,95760.81
2023-04-02T11:12:02.717Z,95761.63
2023-04-02T11:14:36.723Z,95763.00
2023-04-02T11:17:03.766Z,95765.16
2023-04-02T11:19:36.427Z,95773.66
2023-04-02T11:22:06.790Z,95763.47
2023-04-02T11:24:45.555Z,95769.16
2023-04-02T11:27:14.996Z,95766.09
2023-04-02T11:29:47.492Z,95769.00
2023-04-02T11:32:27.639Z,95774.06
2023-04-02T11:35:06.378Z,95779.69
2023-04-02T11:37:44.124Z,95783.38
2023-04-02T11:40:11.017Z,95788.50
2023-04-02T11:42:37.936Z,95785.81
2023-04-02T11:45:21.987Z,95788.81
2023-04-02T11:48:00.348Z,95786.72
2023-04-02T11:50:45.855Z,95785.31
2023-04-02T11:53:13.336Z,95778.28
2023-04-02T11:55:46.135Z,95784.88
2023-04-02T11:58:26.757Z,95792.06
2023-04-02T12:01:11.867Z,95782.28
2023-04-02T12:04:08.181Z,95787.47
2023-04-02T12:06:47.156Z,95783.44
2023-04-02T12:09:28.564Z,95788.03
2023-04-02T12:12:03.330Z,95778.63
2023-04-02T12:14:51.522Z,95786.97
2023-04-02T12:17:34.932Z,95800.09
2023-04-02T12:20:10.226Z,95799.50
2023-04-02T12:22:52.407Z,95810.34
2023-04-02T12:25:21.801Z,95813.88
2023-04-02T12:28:03.115Z,95815.84
2023-04-02T12:30:35.391Z,95812.19
2023-04-02T12:33:20.653Z,95823.38
2023-04-02T12:35:54.997Z,95826.81
2023-04-02T12:38:36.942Z,95831.00
2023-04-02T12:41:19.232Z,95820.84
2023-04-02T12:43:48.321Z,95836.31
2023-04-02T12:46:18.212Z,95831.66
2023-04-02T12:48:47.601Z,95837.22
2023-04-02T12:51:17.592Z,95841.31
2023-04-02T12:53:52.811Z,95838.16
2023-04-02T12:56:26.033Z,95840.78
2023-04-02T12:59:01.765Z,95848.53
2023-04-02T13:01:32.005Z,95844.78
2023-04-02T13:04:19.249Z,95848.22
2023-04-02T13:06:55.109Z,95845.19
2023-04-02T13:09:51.848Z,95850.06
2023-04-02T13:12:37.368Z,95844.88
2023-04-02T13:15:20.226Z,95845.75
2023-04-02T13:18:02.564Z,95844.69
2023-04-02T13:20:43.662Z,95843.84
2023-04-02T13:23:31.731Z,95848.69
2023-04-02T13:26:22.131Z,95833.91
2023-04-02T13:29:25.735Z,95851.66
2023-04-02T13:31:54.847Z,95842.38
2023-04-02T13:34:24.505Z,95845.88
2023-04-02T13:36:57.494Z,95856.47
2023-04-02T13:39:30.673Z,95849.28
2023-04-02T13:42:03.277Z,95839.75
2023-04-02T13:44:44.100Z,95843.56
2023-04-02T13:47:20.245Z,95845.03
2023-04-02T13:49:51.734Z,95841.84
2023-04-02T13:52:23.739Z,95847.16
2023-04-02T13:54:57.354Z,95849.47
2023-04-02T13:57:24.381Z,95837.69
2023-04-02T13:59:56.104Z,95844.41
2023-04-02T14:02:27.861Z,95848.56
2023-04-02T14:05:15.095Z,95857.28
2023-04-02T14:07:47.272Z,95862.38
2023-04-02T14:10:51.816Z,95870.19
2023-04-02T14:14:01.352Z,95873.78
2023-04-02T14:17:11.603Z,95876.56
2023-04-02T14:19:44.454Z,95890.00
2023-04-02T14:22:43.583Z,95901.25
2023-04-02T14:25:25.657Z,95906.03
2023-04-02T14:28:10.371Z,95908.00
2023-04-02T14:30:59.606Z,95909.91
2023-04-02T14:33:58.017Z,95895.28
2023-04-02T14:37:03.453Z,95901.94
2023-04-02T14:39:40.354Z,95900.09
2023-04-02T14:42:30.716Z,95901.72
2023-04-02T14:45:03.272Z,95902.56
2023-04-02T14:47:39.612Z,95910.91
2023-04-02T14:50:16.830Z,95905.59
2023-04-02T14:52:53.210Z,95911.75
2023-04-02T14:55:44.234Z,95911.47
2023-04-02T14:58:40.259Z,95914.13
2023-04-02T15:01:17.819Z,95923.03
2023-04-02T15:04:03.479Z,95924.22
2023-04-02T15:06:37.008Z,95916.25
2023-04-02T15:09:47.643Z,95921.84
2023-04-02T15:12:25.008Z,95926.72
2023-04-02T15:15:02.041Z,95933.16
2023-04-02T15:17:28.854Z,95928.84
2023-04-02T15:20:14.608Z,95936.09
2023-04-02T15:22:49.541Z,95940.97
2023-04-02T15:25:27.376Z,95945.19
2023-04-02T15:28:34.885Z,95936.53
2023-04-02T15:31:12.251Z,95945.75
2023-04-02T15:33:46.952Z,95949.22
2023-04-02T15:36:32.777Z,95945.56
2023-04-02T15:39:12.979Z,95956.00
2023-04-02T15:41:53.694Z,95955.91
2023-04-02T15:44:23.043Z,95952.88
2023-04-02T15:47:14.663Z,95958.38
2023-04-02T15:50:02.078Z,95956.81
2023-04-02T15:52:42.823Z,95969.56
2023-04-02T15:55:28.119Z,95974.44
2023-04-02T15:58:10.478Z,95978.66
2023-04-02T16:01:02.116Z,95978.44
2023-04-02T16:03:31.937Z,95984.81
2023-04-02T16:06:10.898Z,95986.06
2023-04-02T16:09:08.713Z,95996.63
2023-04-02T16:11:40.577Z,95998.97
2023-04-02T16:14:27.533Z,96008.03
2023-04-02T16:17:03.846Z,96015.53
2023-04-02T16:19:41.250Z,96008.69
2023-04-02T16:22:22.994Z,96027.16
2023-04-02T16:25:00.187Z,96013.97
2023-04-02T16:27:40.186Z,96025.78
2023-04-02T16:30:45.287Z,96027.78
2023-04-02T16:33:23.725Z,96036.13
2023-04-02T16:36:22.294Z,96028.75
2023-04-02T16:38:56.632Z,96047.06
2023-04-02T16:42:06.035Z,96038.94
2023-04-02T16:45:04.412Z,96052.31
2023-04-02T16:47:45.584Z,96046.53
2023-04-02T16:50:29.887Z,96062.53
2023-04-02T16:53:27.967Z,96064.41
2023-04-02T16:56:16.972Z,96075.47
2023-04-02T16:58:56.458Z,96068.56
2023-04-02T17:01:53.083Z,96073.59
2023-04-02T17:04:46.877Z,96079.28
2023-04-02T17:07:35.002Z,96084.53
2023-04-02T17:10:30.356Z,96096.94
2023-04-02T17:13:18.155Z,96100.81
2023-04-02T17:15:56.369Z,96104.16
2023-04-02T17:18:25.403Z,96107.41
2023-04-02T17:20:55.435Z,96114.34
2023-04-02T17:23:28.015Z,96121.13
2023-04-02T17:26:06.004Z,96121.66
2023-04-02T17:28:38.572Z,96118.69
2023-04-02T17:31:17.544Z,96133.50
2023-04-02T17:33:44.400Z,96129.59
2023-04-02T17:36:23.319Z,96142.22
2023-04-02T17:38:53.205Z,96141.97
2023-04-02T17:41:35.438Z,96152.72
2023-04-02T17:44:34.675Z,96164.25
2023-04-02T17:47:34.810Z,96167.84
2023-04-02T17:50:22.208Z,96168.69
2023-04-02T17:52:58.513Z,96176.72
2023-04-02T17:56:06.974Z,96184.16
2023-04-02T17:58:36.228Z,96195.13
2023-04-02T18:01:07.988Z,96205.50
2023-04-02T18:03:47.701Z,96202.28
2023-04-02T18:06:27.809Z,96205.34
2023-04-02T18:09:32.016Z,96208.19
2023-04-02T18:12:40.521Z,96221.13
2023-04-02T18:15:41.063Z,96225.34
2023-04-02T18:18:21.081Z,96231.00
2023-04-02T18:21:24.590Z,96238.63
2023-04-02T18:24:07.807Z,96238.50
2023-04-02T18:27:12.552Z,96248.25
2023-04-02T18:30:19.331Z,96258.84
2023-04-02T18:32:58.009Z,96260.81
2023-04-02T18:35:34.865Z,96270.56
2023-04-02T18:38:03.960Z,96274.38
2023-04-02T18:40:51.752Z,96278.88
2023-04-02T18:43:39.189Z,96281.19
2023-04-02T18:46:30.813Z,96280.28
2023-04-02T18:49:11.740Z,96288.94
2023-04-02T18:51:46.232Z,96286.56
2023-04-02T18:54:37.600Z,96302.69
2023-04-02T18:57:23.961Z,96284.72
2023-04-02T19:00:03.156Z,96303.34
2023-04-02T19:02:57.089Z,96308.50
2023-04-02T19:05:28.610Z,96304.03
2023-04-02T19:08:02.668Z,96309.41
2023-04-02T19:10:42.899Z,96309.63
2023-04-02T19:13:18.126Z,96324.53
2023-04-02T19:16:18.828Z,96322.91
2023-04-02T19:18:51.137Z,96328.28
2023-04-02T19:21:47.585Z,96326.53
2023-04-02T19:24:14.323Z,96341.16
2023-04-02T19:26:55.157Z,96345.81
2023-04-02T19:29:40.711Z,96340.94
2023-04-02T19:32:18.040Z,96351.94
2023-04-02T19:35:20.789Z,96356.44
2023-04-02T19:38:09.731Z,96357.34
2023-04-02T19:41:02.265Z,96375.25
2023-04-02T19:43:34.065Z,96370.94
2023-04-02T19:46:02.161Z,96371.41
2023-04-02T19:48:44.504Z,96366.22
2023-04-02T19:51:13.599Z,96364.31
2023-04-02T19:53:40.586Z,96380.84
2023-04-02T19:56:07.570Z,96387.72
2023-04-02T19:58:39.104Z,96391.88
2023-04-02T20:01:08.562Z,96376.25
2023-04-02T20:03:37.938Z,96392.94
2023-04-02T20:06:05.624Z,96399.94
2023-04-02T20:08:36.398Z,96404.13
2023-04-02T20:11:03.531Z,96403.53
2023-04-02T20:13:33.158Z,96412.31
2023-04-02T20:16:01.777Z,96407.53
2023-04-02T20:18:31.654Z,96417.69
2023-04-02T20:21:04.484Z,96420.81
2023-04-02T20:23:31.429Z,96421.72
2023-04-02T20:26:00.715Z,96428.41
2023-04-02T20:28:31.495Z,96434.69
2023-04-02T20:31:15.571Z,96433.03
2023-04-02T20:33:45.578Z,96408.78
2023-04-02T20:36:18.862Z,96441.66
2023-04-02T20:38:45.978Z,96444.19
2023-04-02T20:41:13.213Z,96441.34
2023-04-02T20:43:41.119Z,96448.47
2023-04-02T20:46:10.063Z,96452.66
2023-04-02T20:48:37.872Z,96444.16
2023-04-02T20:51:14.298Z,96455.03
2023-04-02T20:53:43.691Z,96456.50
2023-04-02T20:56:16.144Z,96471.41
2023-04-02T20:58:43.501Z,96467.19
2023-04-02T21:01:16.372Z,96488.47
2023-04-02T21:03:43.924Z,96489.66
2023-04-02T21:06:15.629Z,96493.38
2023-04-02T21:08:44.957Z,96494.13
2023-04-02T21:11:14.844Z,96493.81
2023-04-02T21:13:47.306Z,96497.22
2023-04-02T21:16:29.078Z,96498.41
2023-04-02T21:19:01.302Z,96503.13
2023-04-02T21:21:33.193Z,96506.09
2023-04-02T21:24:02.599Z,96501.19
2023-04-02T21:26:32.527Z,96503.69
2023-04-02T21:29:03.305Z,96504.72
2023-04-02T21:31:37.953Z,96506.06
2023-04-02T21:34:08.677Z,96508.88
2023-04-02T21:36:42.066Z,96520.16
2023-04-02T21:39:14.197Z,96503.03
2023-04-02T21:41:43.299Z,96520.44
2023-04-02T21:44:19.106Z,96529.34
2023-04-02T21:46:48.967Z,96527.38
2023-04-02T21:49:22.881Z,96518.44
2023-04-02T21:51:51.825Z,96538.78
2023-04-02T21:54:23.801Z,96535.97
2023-04-02T21:56:50.831Z,96537.41
2023-04-02T21:59:18.348Z,96537.56
2023-04-02T22:01:48.537Z,96543.78
2023-04-02T22:04:24.166Z,96546.63
2023-04-02T22:06:54.096Z,96541.81
2023-04-02T22:09:25.899Z,96543.47
2023-04-02T22:11:55.560Z,96538.25
2023-04-02T22:14:22.959Z,96543.00
2023-04-02T22:16:52.390Z,96545.81
2023-04-02T22:19:19.489Z,96544.88
2023-04-02T22:21:48.649Z,96552.47
2023-04-02T22:24:22.168Z,96557.34
2023-04-02T22:26:49.900Z,96556.78
2023-04-02T22:29:17.213Z,96564.75
2023-04-02T22:31:51.366Z,96554.47
2023-04-02T22:34:21.203Z,96562.94
2023-04-02T22:36:50.342Z,96563.09
2023-04-02T22:39:17.326Z,96553.56
2023-04-02T22:41:44.098Z,96555.53
2023-04-02T22:44:17.761Z,96564.00
2023-04-02T22:46:47.081Z,96561.28
2023-04-02T22:49:19.647Z,96562.78
2023-04-02T22:51:46.709Z,96566.34
2023-04-02T22:54:18.401Z,96567.25
2023-04-02T22:56:50.180Z,96561.28
2023-04-02T22:59:19.516Z,96572.59
2023-04-02T23:01:46.549Z,96575.13
2023-04-02T23:04:18.227Z,96576.63
2023-04-02T23:06:48.052Z,96572.75
2023-04-02T23:09:19.827Z,96573.31
2023-04-02T23:11:46.699Z,96557.63
2023-04-02T23:14:13.504Z,96560.78
2023-04-02T23:16:45.069Z,96572.06
2023-04-02T23:19:12.102Z,96572.22
2023-04-02T23:21:43.705Z,96572.66
2023-04-02T23:24:13.947Z,96567.75
2023-04-02T23:26:45.940Z,96566.09
2023-04-02T23:29:12.795Z,96573.41
2023-04-02T23:31:44.128Z,96575.47
2023-04-02T23:34:15.735Z,96570.69
2023-04-02T23:36:44.796Z,96565.78
2023-04-02T23:39:13.707Z,96564.44
2023-04-02T23:41:43.953Z,96560.72
2023-04-02T23:44:13.988Z,96554.31
2023-04-02T23:46:43.341Z,96562.22
2023-04-02T23:49:13.221Z,96570.25
2023-04-02T23:51:40.881Z,96568.91
2023-04-02T23:54:07.971Z,96558.63
2023-04-02T23:56:37.444Z,96565.53
2023-04-02T23:59:07.061Z,96560.44
